createdAt,value
2023-06-11T04:15:24.299Z,1012.14
2023-06-11T04:16:24.392Z,1012.14
2023-06-11T04:17:24.294Z,1012.17
2023-06-11T04:18:24.243Z,1012.13
2023-06-11T04:19:24.235Z,1012.14
2023-06-11T04:20:24.304Z,1012.13
2023-06-11T04:21:24.238Z,1012.14
2023-06-11T04:22:24.248Z,1012.12
2023-06-11T04:23:24.217Z,1012.15
2023-06-11T04:24:24.288Z,1012.16
2023-06-11T04:25:24.225Z,1012.16
2023-06-11T04:26:24.195Z,1012.15
2023-06-11T04:27:24.235Z,1012.18
2023-06-11T04:28:24.198Z,1012.18
2023-06-11T04:29:24.213Z,1012.21
2023-06-11T04:30:24.227Z,1012.19
2023-06-11T04:31:24.214Z,1012.22
2023-06-11T04:32:24.244Z,1012.20
2023-06-11T04:33:24.171Z,1012.19
2023-06-11T04:34:24.225Z,1012.20
2023-06-11T04:35:24.213Z,1012.21
2023-06-11T04:36:24.172Z,1012.21
2023-06-11T04:37:24.169Z,1012.19
2023-06-11T04:38:24.168Z,1012.20
2023-06-11T04:39:24.171Z,1012.17
2023-06-11T04:40:24.185Z,1012.19
2023-06-11T04:41:24.192Z,1012.18
2023-06-11T04:42:24.171Z,1012.15
2023-06-11T04:43:24.156Z,1012.15
2023-06-11T04:44:24.162Z,1012.17
2023-06-11T04:45:24.170Z,1012.17
2023-06-11T04:46:24.222Z,1012.15
2023-06-11T04:47:24.224Z,1012.11
2023-06-11T04:48:24.182Z,1012.15
2023-06-11T04:49:24.143Z,1012.19
2023-06-11T04:50:24.146Z,1012.17
2023-06-11T04:51:24.173Z,1012.18
2023-06-11T04:52:24.139Z,1012.17
2023-06-11T04:53:24.211Z,1012.15
2023-06-11T04:54:24.163Z,1012.17
2023-06-11T04:55:24.144Z,1012.21
2023-06-11T04:56:24.158Z,1012.18
2023-06-11T04:57:24.137Z,1012.18
2023-06-11T04:58:24.234Z,1012.17
2023-06-11T04:59:24.158Z,1012.20
2023-06-11T05:00:24.126Z,1012.19
2023-06-11T05:01:24.184Z,1012.20
2023-06-11T05:02:24.287Z,1012.15
2023-06-11T05:03:24.141Z,1012.21
2023-06-11T05:04:24.177Z,1012.17
2023-06-11T05:05:24.259Z,1012.21
2023-06-11T05:06:24.167Z,1012.18
2023-06-11T05:07:24.152Z,1012.20
2023-06-11T05:08:24.141Z,1012.25
2023-06-11T05:09:24.152Z,1012.22
2023-06-11T05:10:24.124Z,1012.20
2023-06-11T05:11:24.132Z,1012.22
2023-06-11T05:12:24.130Z,1012.21
2023-06-11T05:13:24.162Z,1012.19
2023-06-11T05:14:24.137Z,1012.21
2023-06-11T05:15:24.124Z,1012.17
2023-06-11T05:16:24.200Z,1012.19
2023-06-11T05:17:24.146Z,1012.21
2023-06-11T05:18:24.135Z,1012.17
2023-06-11T05:19:24.148Z,1012.17
2023-06-11T05:20:24.126Z,1012.16
2023-06-11T05:21:24.145Z,1012.17
2023-06-11T05:22:24.119Z,1012.14
2023-06-11T05:23:24.110Z,1012.14
2023-06-11T05:24:24.164Z,1012.12
2023-06-11T05:25:24.117Z,1012.18
2023-06-11T05:26:24.097Z,1012.18
2023-06-11T05:27:24.104Z,1012.20
2023-06-11T05:28:24.131Z,1012.23
2023-06-11T05:29:24.126Z,1012.24
2023-06-11T05:30:24.096Z,1012.23
2023-06-11T05:31:24.127Z,1012.25
2023-06-11T05:32:24.213Z,1012.20
2023-06-11T05:33:24.112Z,1012.24
2023-06-11T05:34:24.130Z,1012.22
2023-06-11T05:35:24.135Z,1012.22
2023-06-11T05:36:24.098Z,1012.19
2023-06-11T05:37:24.087Z,1012.18
2023-06-11T05:38:24.120Z,1012.19
2023-06-11T05:39:24.091Z,1012.19
2023-06-11T05:40:24.093Z,1012.22
2023-06-11T05:41:24.091Z,1012.16
2023-06-11T05:42:24.184Z,1012.20
2023-06-11T05:43:24.110Z,1012.18
2023-06-11T05:44:24.086Z,1012.24
2023-06-11T05:45:24.099Z,1012.21
2023-06-11T05:46:24.158Z,1012.19
2023-06-11T05:47:24.293Z,1012.20
2023-06-11T05:48:24.199Z,1012.20
2023-06-11T05:49:24.091Z,1012.24
2023-06-11T05:50:24.086Z,1012.22
2023-06-11T05:51:24.198Z,1012.21
2023-06-11T05:52:24.084Z,1012.26
2023-06-11T05:53:24.108Z,1012.25
2023-06-11T05:54:24.096Z,1012.26
2023-06-11T05:55:24.076Z,1012.24
2023-06-11T05:56:24.104Z,1012.21
2023-06-11T05:57:24.080Z,1012.27
2023-06-11T05:58:24.082Z,1012.26
2023-06-11T05:59:24.080Z,1012.30
2023-06-11T06:00:24.080Z,1012.26
2023-06-11T06:01:24.094Z,1012.30
2023-06-11T06:02:24.225Z,1012.27
2023-06-11T06:03:24.328Z,1012.28
2023-06-11T06:04:24.151Z,1012.31
2023-06-11T06:05:24.108Z,1012.26
2023-06-11T06:06:24.100Z,1012.26
2023-06-11T06:07:24.094Z,1012.27
2023-06-11T06:08:24.090Z,1012.27
2023-06-11T06:09:24.069Z,1012.27
2023-06-11T06:10:24.106Z,1012.29
2023-06-11T06:11:24.097Z,1012.32
2023-06-11T06:12:24.070Z,1012.32
2023-06-11T06:13:24.155Z,1012.34
2023-06-11T06:14:24.085Z,1012.37
2023-06-11T06:15:24.097Z,1012.36
2023-06-11T06:16:26.717Z,1012.38
2023-06-11T06:17:24.331Z,1012.36
2023-06-11T06:18:24.113Z,1012.37
2023-06-11T06:19:24.088Z,1012.39
2023-06-11T06:20:24.101Z,1012.34
2023-06-11T06:21:24.075Z,1012.38
2023-06-11T06:22:24.113Z,1012.34
2023-06-11T06:23:24.091Z,1012.34
2023-06-11T06:24:24.222Z,1012.37
2023-06-11T06:25:24.066Z,1012.39
2023-06-11T06:26:24.112Z,1012.33
2023-06-11T06:27:24.104Z,1012.36
2023-06-11T06:28:24.089Z,1012.35
2023-06-11T06:29:24.121Z,1012.30
2023-06-11T06:30:24.105Z,1012.33
2023-06-11T06:31:24.465Z,1012.36
2023-06-11T06:32:24.129Z,1012.34
2023-06-11T06:33:24.127Z,1012.33
2023-06-11T06:34:24.128Z,1012.33
2023-06-11T06:35:24.139Z,1012.32
2023-06-11T06:36:24.108Z,1012.32
2023-06-11T06:37:24.116Z,1012.33
2023-06-11T06:38:24.100Z,1012.32
2023-06-11T06:39:24.186Z,1012.31
2023-06-11T06:40:24.272Z,1012.37
2023-06-11T06:41:24.118Z,1012.36
2023-06-11T06:42:24.111Z,1012.38
2023-06-11T06:43:24.077Z,1012.40
2023-06-11T06:44:24.079Z,1012.37
2023-06-11T06:45:24.086Z,1012.44
2023-06-11T06:46:24.131Z,1012.40
2023-06-11T06:47:24.221Z,1012.43
2023-06-11T06:48:24.200Z,1012.40
2023-06-11T06:49:24.102Z,1012.42
2023-06-11T06:50:24.085Z,1012.47
2023-06-11T06:51:24.142Z,1012.45
2023-06-11T06:52:24.086Z,1012.44
2023-06-11T06:53:24.086Z,1012.47
2023-06-11T06:54:24.087Z,1012.48
2023-06-11T06:55:24.104Z,1012.46
2023-06-11T06:56:24.107Z,1012.52
2023-06-11T06:57:24.123Z,1012.48
2023-06-11T06:58:24.088Z,1012.46
2023-06-11T06:59:24.096Z,1012.46
2023-06-11T07:00:24.096Z,1012.48
2023-06-11T07:01:24.223Z,1012.45
2023-06-11T07:02:24.163Z,1012.48
2023-06-11T07:03:24.123Z,1012.49
2023-06-11T07:04:24.121Z,1012.49
2023-06-11T07:05:24.160Z,1012.45
2023-06-11T07:06:24.139Z,1012.46
2023-06-11T07:07:24.111Z,1012.45
2023-06-11T07:08:24.151Z,1012.45
2023-06-11T07:09:24.121Z,1012.48
2023-06-11T07:10:24.103Z,1012.45
2023-06-11T07:11:24.156Z,1012.48
2023-06-11T07:12:24.140Z,1012.48
2023-06-11T07:13:24.122Z,1012.51
2023-06-11T07:14:24.177Z,1012.52
2023-06-11T07:15:24.142Z,1012.52
2023-06-11T07:16:24.161Z,1012.53
2023-06-11T07:17:24.137Z,1012.51
2023-06-11T07:18:24.114Z,1012.52
2023-06-11T07:19:24.200Z,1012.54
2023-06-11T07:20:24.210Z,1012.55
2023-06-11T07:21:24.138Z,1012.55
2023-06-11T07:22:24.123Z,1012.53
2023-06-11T07:23:24.119Z,1012.53
2023-06-11T07:24:24.288Z,1012.53
2023-06-11T07:25:24.182Z,1012.55
2023-06-11T07:27:31.027Z,1012.53
2023-06-11T10:29:59.306Z,1012.48
2023-06-11T10:30:59.273Z,1012.45
2023-06-11T10:31:59.277Z,1012.40
2023-06-11T10:32:59.543Z,1012.43
2023-06-11T10:33:59.466Z,1012.47
2023-06-11T10:34:59.387Z,1012.45
2023-06-11T10:35:59.297Z,1012.43
2023-06-11T10:36:59.289Z,1012.44
2023-06-11T10:37:59.346Z,1012.41
2023-06-11T10:38:59.320Z,1012.40
2023-06-11T10:39:59.305Z,1012.42
2023-06-11T10:40:59.313Z,1012.38
2023-06-11T10:41:59.328Z,1012.41
2023-06-11T10:42:59.344Z,1012.45
2023-06-11T10:43:59.346Z,1012.46
2023-06-11T10:44:59.351Z,1012.42
2023-06-11T10:45:59.358Z,1012.44
2023-06-11T10:46:59.362Z,1012.38
2023-06-11T10:47:59.453Z,1012.37
2023-06-11T10:48:59.378Z,1012.37
2023-06-11T10:49:59.388Z,1012.38
2023-06-11T10:50:59.380Z,1012.41
2023-06-11T10:51:59.393Z,1012.41
2023-06-11T10:52:59.426Z,1012.37
2023-06-11T10:53:59.431Z,1012.39
2023-06-11T10:54:59.392Z,1012.37
2023-06-11T10:55:59.403Z,1012.37
2023-06-11T10:56:59.408Z,1012.32
2023-06-11T10:57:59.437Z,1012.33
2023-06-11T10:58:59.449Z,1012.35
2023-06-11T10:59:59.441Z,1012.33
2023-06-11T11:00:59.412Z,1012.37
2023-06-11T11:01:59.528Z,1012.37
2023-06-11T11:03:00.737Z,1012.31
2023-06-11T11:03:59.506Z,1012.31
2023-06-11T11:04:59.457Z,1012.35
2023-06-11T11:05:59.459Z,1012.28
2023-06-11T11:06:59.492Z,1012.31
2023-06-11T11:07:59.452Z,1012.29
2023-06-11T11:08:59.469Z,1012.31
2023-06-11T11:09:59.496Z,1012.29
2023-06-11T11:10:59.467Z,1012.32
2023-06-11T11:11:59.490Z,1012.27
2023-06-11T11:12:59.478Z,1012.34
2023-06-11T11:14:01.340Z,1012.28
2023-06-11T11:14:59.497Z,1012.27
2023-06-11T11:15:59.515Z,1012.25
2023-06-11T11:16:59.734Z,1012.24
2023-06-11T11:17:59.669Z,1012.19
2023-06-11T11:18:59.525Z,1012.22
2023-06-11T11:19:59.530Z,1012.17
2023-06-11T11:20:59.554Z,1012.17
2023-06-11T11:21:59.536Z,1012.15
2023-06-11T11:22:59.597Z,1012.18
2023-06-11T11:23:59.590Z,1012.20
2023-06-11T11:24:59.551Z,1012.22
2023-06-11T11:25:59.566Z,1012.14
2023-06-11T11:26:59.613Z,1012.14
2023-06-11T11:27:59.590Z,1012.19
2023-06-11T11:28:59.608Z,1012.20
2023-06-11T11:30:03.177Z,1012.11
2023-06-11T11:30:59.678Z,1012.12
2023-06-11T11:31:59.639Z,1012.13
2023-06-11T11:32:59.661Z,1012.08
2023-06-11T11:33:59.654Z,1012.04
2023-06-11T11:34:59.631Z,1012.02
2023-06-11T11:36:02.216Z,1012.07
2023-06-11T11:36:59.649Z,1012.03
2023-06-11T11:37:59.683Z,1012.04
2023-06-11T11:38:59.686Z,1012.03
2023-06-11T11:39:59.674Z,1012.05
2023-06-11T11:40:59.707Z,1012.03
2023-06-11T11:42:02.020Z,1011.96
2023-06-11T11:42:59.726Z,1011.93
2023-06-11T11:43:59.737Z,1011.99
2023-06-11T11:44:59.738Z,1012.04
2023-06-11T11:45:59.775Z,1011.99
2023-06-11T11:46:59.742Z,1011.98
2023-06-11T11:48:03.182Z,1011.98
2023-06-11T11:48:59.753Z,1011.98
2023-06-11T11:49:59.786Z,1011.98
2023-06-11T11:50:59.766Z,1011.95
2023-06-11T11:51:59.774Z,1011.92
2023-06-11T11:52:59.801Z,1011.96
2023-06-11T11:54:03.319Z,1011.92
2023-06-11T11:54:59.804Z,1011.97
2023-06-11T11:56:06.014Z,1011.95
2023-06-11T11:56:59.820Z,1011.95
2023-06-11T11:57:59.817Z,1012.07
2023-06-11T11:58:59.853Z,1012.02
2023-06-11T11:59:59.867Z,1012.00
2023-06-11T12:00:59.847Z,1011.98
2023-06-11T12:01:59.861Z,1011.96
2023-06-11T12:02:59.963Z,1011.99
2023-06-11T12:03:59.999Z,1011.95
2023-06-11T12:04:59.879Z,1011.94
2023-06-11T12:06:00.025Z,1011.95
2023-06-11T12:06:59.910Z,1011.94
2023-06-11T12:07:59.919Z,1011.97
2023-06-11T12:08:59.975Z,1011.90
2023-06-11T12:10:03.435Z,1011.93
2023-06-11T12:10:59.950Z,1011.92
2023-06-11T12:12:05.570Z,1011.89
2023-06-11T12:12:59.981Z,1011.88
2023-06-11T12:14:00.001Z,1011.90
2023-06-11T12:14:59.973Z,1011.90
2023-06-11T12:16:03.881Z,1011.90
2023-06-11T12:17:00.039Z,1011.89
2023-06-11T12:18:00.054Z,1011.88
2023-06-11T12:19:14.454Z,1011.92
2023-06-11T12:20:00.014Z,1011.87
2023-06-11T12:21:00.052Z,1011.92
2023-06-11T12:22:00.101Z,1011.92
2023-06-11T12:23:00.042Z,1011.93
2023-06-11T12:24:00.170Z,1011.89
2023-06-11T12:25:00.102Z,1011.80
2023-06-11T12:26:00.098Z,1011.81
2023-06-11T12:27:00.134Z,1011.86
2023-06-11T12:28:00.142Z,1011.84
2023-06-11T12:29:00.118Z,1011.89
2023-06-11T12:30:00.217Z,1011.85
2023-06-11T12:31:00.167Z,1011.87
2023-06-11T12:32:00.250Z,1011.84
2023-06-11T12:33:00.281Z,1011.88
2023-06-11T12:34:00.154Z,1011.85
2023-06-11T12:35:00.182Z,1011.87
2023-06-11T12:36:00.194Z,1011.90
2023-06-11T12:37:00.172Z,1011.84
2023-06-11T12:38:00.220Z,1011.81
2023-06-11T12:39:00.198Z,1011.84
2023-06-11T12:40:00.245Z,1011.82
2023-06-11T12:41:00.234Z,1011.84
2023-06-11T12:42:00.247Z,1011.82
2023-06-11T12:43:00.689Z,1011.85
2023-06-11T12:44:00.287Z,1011.86
2023-06-11T12:45:00.421Z,1011.83
2023-06-11T12:46:00.335Z,1011.94
2023-06-11T12:47:00.278Z,1011.87
2023-06-11T12:48:00.372Z,1011.82
2023-06-11T12:49:00.291Z,1011.84
2023-06-11T12:50:00.320Z,1011.87
2023-06-11T12:51:00.330Z,1011.87
2023-06-11T12:52:00.381Z,1011.89
2023-06-11T12:53:00.336Z,1011.86
2023-06-11T12:54:00.390Z,1011.89
2023-06-11T12:55:00.389Z,1011.86
2023-06-11T12:56:00.473Z,1011.84
2023-06-11T12:57:00.386Z,1011.90
2023-06-11T12:58:00.442Z,1011.91
2023-06-11T12:59:00.427Z,1011.74
2023-06-11T13:00:00.414Z,1011.74
2023-06-11T13:01:00.481Z,1011.76
2023-06-11T13:02:00.466Z,1011.75
2023-06-11T13:03:00.481Z,1011.69
2023-06-11T13:04:00.485Z,1011.69
2023-06-11T13:05:00.667Z,1011.71
2023-06-11T13:06:00.511Z,1011.72
2023-06-11T13:07:00.517Z,1011.83
2023-06-11T13:08:00.524Z,1011.83
2023-06-11T13:09:00.516Z,1011.78
2023-06-11T13:10:00.560Z,1011.80
2023-06-11T13:11:00.547Z,1011.81
2023-06-11T13:12:00.612Z,1011.79
2023-06-11T13:13:00.552Z,1011.77
2023-06-11T13:14:00.561Z,1011.72
2023-06-11T13:15:00.660Z,1011.78
2023-06-11T13:16:00.661Z,1011.82
2023-06-11T13:17:00.653Z,1011.75
2023-06-11T13:18:00.738Z,1011.69
2023-06-11T13:19:00.649Z,1011.71
2023-06-11T13:20:00.641Z,1011.78
2023-06-11T13:21:00.692Z,1011.73
2023-06-11T13:22:00.718Z,1011.75
2023-06-11T13:23:00.663Z,1011.72
2023-06-11T13:24:00.737Z,1011.70
2023-06-11T13:25:00.716Z,1011.69
2023-06-11T13:26:00.713Z,1011.65
2023-06-11T13:27:00.706Z,1011.65
2023-06-11T13:28:00.737Z,1011.69
2023-06-11T13:29:00.756Z,1011.68
2023-06-11T13:30:00.763Z,1011.71
2023-06-11T13:31:00.789Z,1011.71
2023-06-11T13:32:00.776Z,1011.68
2023-06-11T13:33:00.877Z,1011.68
2023-06-11T13:34:00.789Z,1011.64
2023-06-11T13:35:00.855Z,1011.69
2023-06-11T13:36:00.923Z,1011.72
2023-06-11T13:38:33.385Z,1011.68
2023-06-11T13:39:33.456Z,1011.68
2023-06-11T13:40:33.405Z,1011.65
2023-06-11T13:41:33.437Z,1011.66
2023-06-11T13:42:33.448Z,1011.68
2023-06-11T13:43:33.440Z,1011.64
2023-06-11T13:44:33.496Z,1011.65
2023-06-11T13:45:33.489Z,1011.58
2023-06-11T13:46:33.517Z,1011.68
2023-06-11T13:47:33.560Z,1011.67
2023-06-11T13:48:33.517Z,1011.63
2023-06-11T13:49:33.527Z,1011.63
2023-06-11T13:50:33.563Z,1011.66
2023-06-11T13:51:33.545Z,1011.60
2023-06-11T13:52:33.596Z,1011.60
2023-06-11T13:53:33.594Z,1011.64
2023-06-11T13:54:33.578Z,1011.62
2023-06-11T13:55:33.587Z,1011.67
2023-06-11T13:56:33.657Z,1011.71
2023-06-11T13:57:33.653Z,1011.66
2023-06-11T13:58:33.634Z,1011.62
2023-06-11T13:59:33.643Z,1011.66
2023-06-11T14:00:33.708Z,1011.64
2023-06-11T14:01:33.951Z,1011.67
2023-06-11T14:02:33.762Z,1011.69
2023-06-11T14:03:33.809Z,1011.65
2023-06-11T14:04:33.727Z,1011.70
2023-06-11T14:05:33.764Z,1011.63
2023-06-11T14:06:33.787Z,1011.64
2023-06-11T14:07:33.803Z,1011.64
2023-06-11T14:08:33.760Z,1011.62
2023-06-11T14:09:33.814Z,1011.66
2023-06-11T14:10:33.825Z,1011.60
2023-06-11T14:11:33.817Z,1011.61
2023-06-11T14:12:33.817Z,1011.61
2023-06-11T14:13:33.872Z,1011.60
2023-06-11T14:14:33.875Z,1011.64
2023-06-11T14:15:33.878Z,1011.59
2023-06-11T14:16:33.938Z,1011.61
2023-06-11T14:17:33.921Z,1011.57
2023-06-11T14:18:33.919Z,1011.62
2023-06-11T14:19:33.902Z,1011.61
2023-06-11T14:20:33.929Z,1011.61
2023-06-11T14:21:33.945Z,1011.57
2023-06-11T14:22:33.945Z,1011.59
2023-06-11T14:23:34.046Z,1011.63
2023-06-11T14:24:34.035Z,1011.58
2023-06-11T14:25:33.992Z,1011.58
2023-06-11T14:26:33.997Z,1011.55
2023-06-11T14:27:34.041Z,1011.62
2023-06-11T14:28:34.026Z,1011.61
2023-06-11T14:29:34.061Z,1011.59
2023-06-11T14:30:34.053Z,1011.66
2023-06-11T14:31:34.138Z,1011.59
2023-06-11T14:32:34.364Z,1011.59
2023-06-11T14:33:34.081Z,1011.57
2023-06-11T14:34:34.129Z,1011.60
2023-06-11T14:35:34.093Z,1011.65
2023-06-11T14:36:34.101Z,1011.59
2023-06-11T14:37:34.119Z,1011.63
2023-06-11T14:38:34.169Z,1011.59
2023-06-11T14:39:34.195Z,1011.58
2023-06-11T14:40:34.157Z,1011.60
2023-06-11T14:41:34.158Z,1011.55
2023-06-11T14:42:34.202Z,1011.61
2023-06-11T14:43:34.205Z,1011.59
2023-06-11T14:44:34.258Z,1011.59
2023-06-11T14:45:34.246Z,1011.62
2023-06-11T14:46:34.262Z,1011.60
2023-06-11T14:47:34.414Z,1011.63
2023-06-11T14:48:34.236Z,1011.56
2023-06-11T14:49:34.281Z,1011.59
2023-06-11T14:50:34.265Z,1011.55
2023-06-11T14:51:34.284Z,1011.57
2023-06-11T14:52:34.308Z,1011.56
2023-06-11T14:53:34.352Z,1011.58
2023-06-11T14:54:34.315Z,1011.54
2023-06-11T14:55:34.333Z,1011.54
2023-06-11T14:56:34.363Z,1011.55
2023-06-11T14:57:34.340Z,1011.63
2023-06-11T14:59:34.375Z,1011.57
2023-06-11T15:00:34.433Z,1011.53
2023-06-11T15:01:34.548Z,1011.55
2023-06-11T15:02:34.509Z,1011.54
2023-06-11T15:03:34.474Z,1011.51
2023-06-11T15:04:34.459Z,1011.51
2023-06-11T15:05:34.482Z,1011.46
2023-06-11T15:06:34.488Z,1011.42
2023-06-11T15:07:35.988Z,1011.45
2023-06-11T15:08:34.472Z,1011.46
2023-06-11T15:09:34.497Z,1011.43
2023-06-11T15:10:34.520Z,1011.39
2023-06-11T15:11:34.511Z,1011.42
2023-06-11T15:12:34.526Z,1011.43
2023-06-11T15:13:34.541Z,1011.42
2023-06-11T15:14:34.554Z,1011.35
2023-06-11T15:15:34.570Z,1011.35
2023-06-11T15:16:34.629Z,1011.42
2023-06-11T15:17:34.622Z,1011.38
2023-06-11T15:18:34.595Z,1011.32
2023-06-11T15:19:34.664Z,1011.35
2023-06-11T15:20:34.632Z,1011.38
2023-06-11T15:21:34.684Z,1011.38
2023-06-11T15:22:34.661Z,1011.35
2023-06-11T15:23:34.739Z,1011.37
2023-06-11T15:24:34.680Z,1011.31
2023-06-11T15:25:34.699Z,1011.29
2023-06-11T15:26:34.711Z,1011.29
2023-06-11T15:27:34.705Z,1011.39
2023-06-11T15:28:34.895Z,1011.39
2023-06-11T15:29:34.738Z,1011.30
2023-06-11T15:30:34.722Z,1011.35
2023-06-11T15:31:34.781Z,1011.34
2023-06-11T15:32:34.936Z,1011.33
2023-06-11T15:33:34.830Z,1011.31
2023-06-11T15:34:34.767Z,1011.32
2023-06-11T15:35:34.797Z,1011.33
2023-06-11T15:36:34.804Z,1011.29
2023-06-11T15:37:34.805Z,1011.30
2023-06-11T15:38:34.830Z,1011.29
2023-06-11T15:39:34.823Z,1011.30
2023-06-11T15:40:34.832Z,1011.30
2023-06-11T15:41:34.904Z,1011.33
2023-06-11T15:42:34.893Z,1011.29
2023-06-11T15:43:34.842Z,1011.31
2023-06-11T15:44:34.880Z,1011.32
2023-06-11T15:45:34.888Z,1011.31
2023-06-11T15:46:34.936Z,1011.24
2023-06-11T15:47:35.126Z,1011.25
2023-06-11T15:48:34.970Z,1011.30
2023-06-11T15:49:34.912Z,1011.29
2023-06-11T15:50:34.931Z,1011.29
2023-06-11T15:51:34.962Z,1011.28
2023-06-11T15:52:34.915Z,1011.30
2023-06-11T15:53:34.924Z,1011.30
2023-06-11T15:54:34.992Z,1011.31
2023-06-11T15:55:34.993Z,1011.28
2023-06-11T15:56:34.954Z,1011.32
2023-06-11T15:57:34.974Z,1011.32
2023-06-11T15:58:34.972Z,1011.36
2023-06-11T15:59:35.032Z,1011.32
2023-06-11T16:00:35.022Z,1011.34
2023-06-11T16:01:35.064Z,1011.30
2023-06-11T16:02:34.999Z,1011.32
2023-06-11T16:03:35.123Z,1011.30
2023-06-11T16:04:35.089Z,1011.33
2023-06-11T16:05:35.072Z,1011.34
2023-06-11T16:06:35.018Z,1011.35
2023-06-11T16:07:35.099Z,1011.33
2023-06-11T16:08:35.028Z,1011.34
2023-06-11T16:09:35.101Z,1011.33
2023-06-11T16:10:35.078Z,1011.36
2023-06-11T16:11:35.069Z,1011.33
2023-06-11T16:12:35.093Z,1011.37
2023-06-11T16:13:35.096Z,1011.33
2023-06-11T16:14:35.119Z,1011.32
2023-06-11T16:15:35.260Z,1011.33
2023-06-11T16:16:35.287Z,1011.32
2023-06-11T16:29:14.039Z,1011.39
2023-06-11T16:30:14.343Z,1011.40
2023-06-11T16:31:14.019Z,1011.39
2023-06-11T16:32:13.980Z,1011.42
2023-06-11T16:33:14.058Z,1011.33
2023-06-11T16:34:14.053Z,1011.36
2023-06-11T16:35:14.444Z,1011.36
2023-06-11T16:36:14.015Z,1011.37
2023-06-11T16:37:14.004Z,1011.34
2023-06-11T16:38:14.008Z,1011.33
2023-06-11T16:39:26.729Z,1011.37
2023-06-11T16:40:14.028Z,1011.32
2023-06-11T16:41:14.036Z,1011.32
2023-06-11T16:42:14.070Z,1011.33
2023-06-11T16:43:14.032Z,1011.31
2023-06-11T16:44:14.020Z,1011.31
2023-06-11T16:45:14.318Z,1011.30
2023-06-11T16:46:14.074Z,1011.25
2023-06-11T16:47:14.097Z,1011.27
2023-06-11T16:48:14.110Z,1011.28
2023-06-11T16:49:14.126Z,1011.26
2023-06-11T16:50:14.403Z,1011.25
2023-06-11T16:51:14.096Z,1011.22
2023-06-11T16:52:14.088Z,1011.23
2023-06-11T16:53:14.062Z,1011.21
2023-06-11T16:54:16.540Z,1011.28
2023-06-11T16:55:14.474Z,1011.27
2023-06-11T16:56:14.103Z,1011.26
2023-06-11T16:57:14.090Z,1011.23
2023-06-11T16:58:14.125Z,1011.24
2023-06-11T16:59:14.107Z,1011.26
2023-06-11T17:00:14.353Z,1011.21
2023-06-11T17:01:14.184Z,1011.24
2023-06-11T17:02:14.107Z,1011.24
2023-06-11T17:03:14.163Z,1011.20
2023-06-11T17:04:14.195Z,1011.20
2023-06-11T17:05:14.152Z,1011.19
2023-06-11T17:06:14.113Z,1011.16
2023-06-11T17:07:14.117Z,1011.21
2023-06-11T17:08:14.118Z,1011.15
2023-06-11T17:09:14.242Z,1011.17
2023-06-11T17:10:14.519Z,1011.18
2023-06-11T17:11:14.144Z,1011.19
2023-06-11T17:12:14.131Z,1011.17
2023-06-11T17:13:14.140Z,1011.16
2023-06-11T17:14:14.150Z,1011.13
2023-06-11T17:15:14.264Z,1011.17
2023-06-11T17:16:14.254Z,1011.14
2023-06-11T17:17:14.191Z,1011.14
2023-06-11T17:18:14.191Z,1011.16
2023-06-11T17:19:14.158Z,1011.17
2023-06-11T17:20:14.546Z,1011.11
2023-06-11T17:21:14.196Z,1011.13
2023-06-11T17:22:14.190Z,1011.12
2023-06-11T17:23:14.171Z,1011.14
2023-06-11T17:24:14.229Z,1011.12
2023-06-11T17:25:14.581Z,1011.13
2023-06-11T17:26:16.565Z,1011.13
2023-06-11T17:27:14.171Z,1011.13
2023-06-11T17:28:14.185Z,1011.10
2023-06-11T17:29:14.208Z,1011.10
2023-06-11T17:30:14.441Z,1011.10
2023-06-11T17:31:14.272Z,1011.10
2023-06-11T17:32:14.250Z,1011.06
2023-06-11T17:33:14.317Z,1011.05
2023-06-11T17:34:14.232Z,1011.07
2023-06-11T17:35:14.375Z,1011.09
2023-06-11T17:36:14.211Z,1011.08
2023-06-11T17:37:14.215Z,1011.04
2023-06-11T17:38:14.218Z,1011.06
2023-06-11T17:39:14.264Z,1011.08
2023-06-11T17:40:16.618Z,1011.07
2023-06-11T17:41:14.222Z,1011.05
2023-06-11T17:42:14.247Z,1011.06
2023-06-11T17:43:14.251Z,1011.08
2023-06-11T17:44:14.258Z,1011.02
2023-06-11T17:45:14.226Z,1011.03
2023-06-11T17:46:14.317Z,1011.04
2023-06-11T17:47:14.249Z,1011.01
2023-06-11T17:48:14.281Z,1011.03
2023-06-11T17:49:14.288Z,1011.01
2023-06-11T17:50:14.458Z,1010.99
2023-06-11T17:51:14.837Z,1011.04
2023-06-11T17:52:14.255Z,1010.98
2023-06-11T17:53:14.277Z,1011.02
2023-06-11T17:54:14.252Z,1011.00
2023-06-11T17:55:14.533Z,1011.07
2023-06-11T17:56:14.266Z,1011.03
2023-06-11T17:57:14.291Z,1011.06
2023-06-11T17:58:14.277Z,1011.04
2023-06-11T17:59:14.270Z,1011.00
2023-06-11T18:00:14.563Z,1011.02
2023-06-11T18:01:14.368Z,1011.01
2023-06-11T18:02:14.316Z,1010.96
2023-06-11T18:03:14.322Z,1010.99
2023-06-11T18:04:14.318Z,1010.99
2023-06-11T18:05:14.576Z,1010.99
2023-06-11T18:06:16.860Z,1010.96
2023-06-11T18:07:14.290Z,1011.00
2023-06-11T18:08:14.330Z,1010.99
2023-06-11T18:09:14.303Z,1010.99
2023-06-11T18:10:14.290Z,1011.00
2023-06-11T18:11:14.305Z,1010.96
2023-06-11T18:12:14.310Z,1010.99
2023-06-11T18:13:14.317Z,1011.02
2023-06-11T18:14:14.305Z,1011.01
2023-06-11T18:15:31.346Z,1010.99
2023-06-11T18:16:14.338Z,1010.98
2023-06-11T18:17:14.324Z,1010.99
2023-06-11T18:18:14.327Z,1011.01
2023-06-11T18:19:14.357Z,1011.01
2023-06-11T18:20:14.331Z,1011.00
2023-06-11T18:21:14.343Z,1011.02
2023-06-11T18:22:14.343Z,1011.04
2023-06-11T18:23:14.364Z,1010.98
2023-06-11T18:24:14.404Z,1011.01
2023-06-11T18:25:14.669Z,1011.04
2023-06-11T18:26:14.453Z,1011.04
2023-06-11T18:27:14.401Z,1011.04
2023-06-11T18:28:14.333Z,1011.06
2023-06-11T18:29:14.344Z,1011.07
2023-06-11T18:30:14.670Z,1011.07
2023-06-11T18:31:14.357Z,1011.07
2023-06-11T18:32:14.355Z,1011.08
2023-06-11T18:33:14.416Z,1011.12
2023-06-11T18:34:14.349Z,1011.11
2023-06-11T18:35:14.358Z,1011.13
2023-06-11T18:36:14.358Z,1011.10
2023-06-11T18:37:14.438Z,1011.12
2023-06-11T18:38:14.351Z,1011.11
2023-06-11T18:39:14.357Z,1011.12
2023-06-11T18:40:14.750Z,1011.14
2023-06-11T18:41:14.370Z,1011.14
2023-06-11T18:42:14.390Z,1011.17
2023-06-11T18:43:14.376Z,1011.15
2023-06-11T18:44:14.394Z,1011.18
2023-06-11T18:45:14.387Z,1011.17
2023-06-11T18:46:14.457Z,1011.19
2023-06-11T18:47:14.407Z,1011.20
2023-06-11T18:48:14.491Z,1011.16
2023-06-11T18:49:14.426Z,1011.17
2023-06-11T18:50:14.719Z,1011.14
2023-06-11T18:51:14.376Z,1011.11
2023-06-11T18:52:14.392Z,1011.16
2023-06-11T18:53:14.478Z,1011.14
2023-06-11T18:54:14.418Z,1011.16
2023-06-11T18:55:14.406Z,1011.19
2023-06-11T18:56:14.389Z,1011.13
2023-06-11T18:57:14.397Z,1011.18
2023-06-11T18:58:17.413Z,1011.17
2023-06-11T18:59:14.436Z,1011.15
2023-06-11T19:00:14.727Z,1011.17
2023-06-11T19:01:14.442Z,1011.16
2023-06-11T19:02:14.398Z,1011.14
2023-06-11T19:03:14.482Z,1011.15
2023-06-11T19:04:14.549Z,1011.19
2023-06-11T19:05:14.474Z,1011.19
2023-06-11T19:06:14.429Z,1011.24
2023-06-11T19:07:14.432Z,1011.20
2023-06-11T19:08:14.486Z,1011.22
2023-06-11T19:09:14.440Z,1011.21
2023-06-11T19:10:14.746Z,1011.24
2023-06-11T19:11:14.443Z,1011.21
2023-06-11T19:12:14.430Z,1011.24
2023-06-11T19:13:14.445Z,1011.23
2023-06-11T19:14:14.423Z,1011.22
2023-06-11T19:15:14.457Z,1011.22
2023-06-11T19:16:14.453Z,1011.26
2023-06-11T19:17:14.514Z,1011.25
2023-06-11T19:18:14.477Z,1011.27
2023-06-11T19:19:14.431Z,1011.24
2023-06-11T19:20:14.607Z,1011.24
2023-06-11T19:21:14.478Z,1011.23
2023-06-11T19:22:14.443Z,1011.21
2023-06-11T19:23:14.472Z,1011.22
2023-06-11T19:24:14.487Z,1011.24
2023-06-11T19:25:14.467Z,1011.23
2023-06-11T19:26:14.486Z,1011.22
2023-06-11T19:27:14.504Z,1011.19
2023-06-11T19:28:14.490Z,1011.21
2023-06-11T19:29:14.468Z,1011.18
2023-06-11T19:30:14.861Z,1011.22
2023-06-11T19:31:14.574Z,1011.20
2023-06-11T19:32:14.462Z,1011.23
2023-06-11T19:33:14.464Z,1011.22
2023-06-11T19:34:17.010Z,1011.19
2023-06-11T19:35:14.500Z,1011.21
2023-06-11T19:36:14.602Z,1011.19
2023-06-11T19:37:14.493Z,1011.19